sensor_id;sensor_type;location;lat;lon;timestamp;P1;durP1;ratioP1;P2;durP2;ratioP2
47403;SDS011;33157;51.508;4.288;2023-03-05T00:02:13;10.07;;;2.83;;
47403;SDS011;33157;51.508;4.288;2023-03-05T00:07:14;13.43;;;3.50;;
47403;SDS011;33157;51.508;4.288;2023-03-05T00:12:17;7.75;;;2.83;;
47403;SDS011;33157;51.508;4.288;2023-03-05T00:17:21;14.35;;;2.65;;
47403;SDS011;33157;51.508;4.288;2023-03-05T00:22:25;11.93;;;2.50;;
47403;SDS011;33157;51.508;4.288;2023-03-05T00:27:36;6.63;;;2.33;;
47403;SDS011;33157;51.508;4.288;2023-03-05T00:32:38;10.82;;;2.38;;
47403;SDS011;33157;51.508;4.288;2023-03-05T00:37:55;9.77;;;2.35;;
47403;SDS011;33157;51.508;4.288;2023-03-05T00:43:00;10.70;;;2.45;;
47403;SDS011;33157;51.508;4.288;2023-03-05T00:48:02;10.52;;;2.55;;
47403;SDS011;33157;51.508;4.288;2023-03-05T00:53:10;10.50;;;1.85;;
47403;SDS011;33157;51.508;4.288;2023-03-05T00:58:16;8.85;;;2.03;;
47403;SDS011;33157;51.508;4.288;2023-03-05T01:03:25;7.68;;;2.00;;
47403;SDS011;33157;51.508;4.288;2023-03-05T01:08:28;16.42;;;3.13;;
47403;SDS011;33157;51.508;4.288;2023-03-05T01:13:35;13.23;;;2.53;;
47403;SDS011;33157;51.508;4.288;2023-03-05T01:18:42;12.98;;;2.85;;
47403;SDS011;33157;51.508;4.288;2023-03-05T01:23:44;11.32;;;3.28;;
47403;SDS011;33157;51.508;4.288;2023-03-05T01:28:45;12.00;;;3.60;;
47403;SDS011;33157;51.508;4.288;2023-03-05T01:33:50;14.13;;;3.15;;
47403;SDS011;33157;51.508;4.288;2023-03-05T01:38:52;12.60;;;2.97;;
47403;SDS011;33157;51.508;4.288;2023-03-05T01:43:53;9.43;;;2.35;;
47403;SDS011;33157;51.508;4.288;2023-03-05T01:54:11;17.40;;;4.63;;
47403;SDS011;33157;51.508;4.288;2023-03-05T01:59:24;7.43;;;2.00;;
47403;SDS011;33157;51.508;4.288;2023-03-05T02:04:28;7.57;;;2.03;;
47403;SDS011;33157;51.508;4.288;2023-03-05T02:09:40;6.82;;;1.83;;
47403;SDS011;33157;51.508;4.288;2023-03-05T02:14:44;14.43;;;1.80;;
47403;SDS011;33157;51.508;4.288;2023-03-05T02:19:48;9.77;;;1.90;;
47403;SDS011;33157;51.508;4.288;2023-03-05T02:25:14;9.25;;;2.10;;
47403;SDS011;33157;51.508;4.288;2023-03-05T02:30:26;20.98;;;2.53;;
47403;SDS011;33157;51.508;4.288;2023-03-05T02:35:40;18.58;;;2.92;;
47403;SDS011;33157;51.508;4.288;2023-03-05T02:40:44;9.80;;;2.20;;
47403;SDS011;33157;51.508;4.288;2023-03-05T02:45:56;10.57;;;1.98;;
47403;SDS011;33157;51.508;4.288;2023-03-05T02:51:01;7.40;;;1.80;;
47403;SDS011;33157;51.508;4.288;2023-03-05T02:56:04;9.25;;;2.85;;
47403;SDS011;33157;51.508;4.288;2023-03-05T03:01:06;14.63;;;2.45;;
47403;SDS011;33157;51.508;4.288;2023-03-05T03:06:09;3.78;;;1.20;;
47403;SDS011;33157;51.508;4.288;2023-03-05T03:11:11;8.48;;;1.25;;
47403;SDS011;33157;51.508;4.288;2023-03-05T03:16:13;7.47;;;1.40;;
47403;SDS011;33157;51.508;4.288;2023-03-05T03:21:21;5.43;;;1.27;;
47403;SDS011;33157;51.508;4.288;2023-03-05T03:26:30;8.02;;;1.05;;
47403;SDS011;33157;51.508;4.288;2023-03-05T03:31:31;8.68;;;0.90;;
47403;SDS011;33157;51.508;4.288;2023-03-05T03:36:33;7.05;;;1.30;;
47403;SDS011;33157;51.508;4.288;2023-03-05T03:41:36;9.93;;;1.80;;
47403;SDS011;33157;51.508;4.288;2023-03-05T03:46:41;8.02;;;2.00;;
47403;SDS011;33157;51.508;4.288;2023-03-05T03:51:45;6.78;;;1.90;;
47403;SDS011;33157;51.508;4.288;2023-03-05T03:56:48;7.05;;;1.73;;
47403;SDS011;33157;51.508;4.288;2023-03-05T04:01:49;6.00;;;1.92;;
47403;SDS011;33157;51.508;4.288;2023-03-05T04:06:50;10.65;;;2.20;;
47403;SDS011;33157;51.508;4.288;2023-03-05T04:11:54;7.07;;;1.98;;
47403;SDS011;33157;51.508;4.288;2023-03-05T04:17:01;23.23;;;5.00;;
47403;SDS011;33157;51.508;4.288;2023-03-05T04:22:02;11.00;;;1.83;;
47403;SDS011;33157;51.508;4.288;2023-03-05T04:27:03;14.20;;;1.83;;
47403;SDS011;33157;51.508;4.288;2023-03-05T04:32:07;8.75;;;1.77;;
47403;SDS011;33157;51.508;4.288;2023-03-05T04:37:09;10.38;;;2.10;;
47403;SDS011;33157;51.508;4.288;2023-03-05T04:42:10;9.73;;;2.10;;
47403;SDS011;33157;51.508;4.288;2023-03-05T04:47:11;7.70;;;2.38;;
47403;SDS011;33157;51.508;4.288;2023-03-05T04:52:18;13.88;;;2.17;;
47403;SDS011;33157;51.508;4.288;2023-03-05T04:57:22;8.50;;;2.17;;
47403;SDS011;33157;51.508;4.288;2023-03-05T05:02:25;4.53;;;1.20;;
47403;SDS011;33157;51.508;4.288;2023-03-05T05:07:47;3.20;;;1.13;;
47403;SDS011;33157;51.508;4.288;2023-03-05T05:12:49;3.30;;;0.90;;
47403;SDS011;33157;51.508;4.288;2023-03-05T05:17:56;6.03;;;1.27;;
47403;SDS011;33157;51.508;4.288;2023-03-05T05:22:57;2.13;;;0.70;;
47403;SDS011;33157;51.508;4.288;2023-03-05T05:27:58;6.38;;;1.10;;
47403;SDS011;33157;51.508;4.288;2023-03-05T05:33:00;2.53;;;0.60;;
47403;SDS011;33157;51.508;4.288;2023-03-05T05:38:06;6.78;;;0.80;;
47403;SDS011;33157;51.508;4.288;2023-03-05T05:43:07;6.03;;;0.80;;
47403;SDS011;33157;51.508;4.288;2023-03-05T05:48:09;2.55;;;1.05;;
47403;SDS011;33157;51.508;4.288;2023-03-05T05:53:18;4.35;;;1.88;;
47403;SDS011;33157;51.508;4.288;2023-03-05T05:58:20;11.43;;;2.42;;
47403;SDS011;33157;51.508;4.288;2023-03-05T06:03:25;9.35;;;2.67;;
47403;SDS011;33157;51.508;4.288;2023-03-05T06:08:26;10.88;;;4.13;;
47403;SDS011;33157;51.508;4.288;2023-03-05T06:13:28;9.07;;;2.97;;
47403;SDS011;33157;51.508;4.288;2023-03-05T06:18:29;12.57;;;3.25;;
47403;SDS011;33157;51.508;4.288;2023-03-05T06:23:31;7.85;;;3.15;;
47403;SDS011;33157;51.508;4.288;2023-03-05T06:28:34;10.80;;;3.17;;
47403;SDS011;33157;51.508;4.288;2023-03-05T06:33:42;11.20;;;3.13;;
47403;SDS011;33157;51.508;4.288;2023-03-05T06:38:45;7.32;;;3.22;;
47403;SDS011;33157;51.508;4.288;2023-03-05T06:43:50;9.35;;;3.42;;
47403;SDS011;33157;51.508;4.288;2023-03-05T06:48:58;8.50;;;2.63;;
47403;SDS011;33157;51.508;4.288;2023-03-05T06:54:07;7.75;;;1.90;;
47403;SDS011;33157;51.508;4.288;2023-03-05T06:59:12;11.65;;;1.90;;
47403;SDS011;33157;51.508;4.288;2023-03-05T07:04:15;5.88;;;1.60;;
47403;SDS011;33157;51.508;4.288;2023-03-05T07:09:19;4.78;;;1.25;;
47403;SDS011;33157;51.508;4.288;2023-03-05T07:14:21;10.73;;;1.98;;
47403;SDS011;33157;51.508;4.288;2023-03-05T07:19:24;2.60;;;1.00;;
47403;SDS011;33157;51.508;4.288;2023-03-05T07:24:25;6.18;;;1.50;;
47403;SDS011;33157;51.508;4.288;2023-03-05T07:29:34;7.90;;;1.35;;
47403;SDS011;33157;51.508;4.288;2023-03-05T07:34:36;3.85;;;1.30;;
47403;SDS011;33157;51.508;4.288;2023-03-05T07:39:45;6.15;;;1.15;;
47403;SDS011;33157;51.508;4.288;2023-03-05T07:44:52;5.38;;;1.13;;
47403;SDS011;33157;51.508;4.288;2023-03-05T07:50:01;4.68;;;0.90;;
47403;SDS011;33157;51.508;4.288;2023-03-05T07:55:03;8.13;;;1.00;;
47403;SDS011;33157;51.508;4.288;2023-03-05T08:00:10;1.73;;;0.80;;
47403;SDS011;33157;51.508;4.288;2023-03-05T08:05:12;3.63;;;1.13;;
47403;SDS011;33157;51.508;4.288;2023-03-05T08:10:16;3.35;;;0.90;;
47403;SDS011;33157;51.508;4.288;2023-03-05T08:15:18;4.95;;;0.93;;
47403;SDS011;33157;51.508;4.288;2023-03-05T08:20:24;5.57;;;0.90;;
47403;SDS011;33157;51.508;4.288;2023-03-05T08:25:25;1.88;;;0.50;;
47403;SDS011;33157;51.508;4.288;2023-03-05T08:30:30;4.50;;;0.70;;
47403;SDS011;33157;51.508;4.288;2023-03-05T08:35:36;3.73;;;0.90;;
47403;SDS011;33157;51.508;4.288;2023-03-05T08:40:40;5.38;;;1.27;;
47403;SDS011;33157;51.508;4.288;2023-03-05T08:45:43;5.15;;;1.10;;
47403;SDS011;33157;51.508;4.288;2023-03-05T08:50:47;5.20;;;0.90;;
47403;SDS011;33157;51.508;4.288;2023-03-05T08:55:53;6.93;;;1.33;;
47403;SDS011;33157;51.508;4.288;2023-03-05T09:00:56;3.28;;;0.90;;
47403;SDS011;33157;51.508;4.288;2023-03-05T09:06:02;2.38;;;0.90;;
47403;SDS011;33157;51.508;4.288;2023-03-05T09:11:17;5.15;;;1.13;;
47403;SDS011;33157;51.508;4.288;2023-03-05T09:16:20;6.72;;;1.45;;
47403;SDS011;33157;51.508;4.288;2023-03-05T09:21:22;6.95;;;2.03;;
47403;SDS011;33157;51.508;4.288;2023-03-05T09:26:26;4.00;;;1.10;;
47403;SDS011;33157;51.508;4.288;2023-03-05T09:31:34;5.88;;;1.30;;
47403;SDS011;33157;51.508;4.288;2023-03-05T09:36:37;2.05;;;0.57;;
47403;SDS011;33157;51.508;4.288;2023-03-05T09:52:33;6.10;;;0.70;;
47403;SDS011;33157;51.508;4.288;2023-03-05T09:57:47;5.15;;;0.90;;
47403;SDS011;33157;51.508;4.288;2023-03-05T10:02:51;4.60;;;0.90;;
47403;SDS011;33157;51.508;4.288;2023-03-05T10:07:59;5.88;;;0.70;;
47403;SDS011;33157;51.508;4.288;2023-03-05T10:13:15;4.13;;;0.93;;
47403;SDS011;33157;51.508;4.288;2023-03-05T10:28:53;4.60;;;0.82;;
47403;SDS011;33157;51.508;4.288;2023-03-05T10:45:19;5.65;;;0.80;;
47403;SDS011;33157;51.508;4.288;2023-03-05T10:50:24;3.30;;;0.93;;
47403;SDS011;33157;51.508;4.288;2023-03-05T10:55:27;5.47;;;1.10;;
47403;SDS011;33157;51.508;4.288;2023-03-05T11:00:29;9.75;;;2.47;;
47403;SDS011;33157;51.508;4.288;2023-03-05T11:16:28;2.88;;;0.50;;
47403;SDS011;33157;51.508;4.288;2023-03-05T11:21:42;2.85;;;0.57;;
47403;SDS011;33157;51.508;4.288;2023-03-05T11:26:51;3.75;;;0.65;;
47403;SDS011;33157;51.508;4.288;2023-03-05T11:31:54;5.82;;;0.77;;
47403;SDS011;33157;51.508;4.288;2023-03-05T11:42:02;1.15;;;0.30;;
47403;SDS011;33157;51.508;4.288;2023-03-05T11:52:37;1.25;;;0.40;;
47403;SDS011;33157;51.508;4.288;2023-03-05T11:58:31;2.65;;;0.40;;
47403;SDS011;33157;51.508;4.288;2023-03-05T12:03:25;1.38;;;0.52;;
47403;SDS011;33157;51.508;4.288;2023-03-05T12:08:34;4.30;;;0.73;;
47403;SDS011;33157;51.508;4.288;2023-03-05T12:13:50;5.00;;;1.17;;
47403;SDS011;33157;51.508;4.288;2023-03-05T12:24:42;1.00;;;0.32;;
47403;SDS011;33157;51.508;4.288;2023-03-05T12:29:50;0.65;;;0.57;;
47403;SDS011;33157;51.508;4.288;2023-03-05T12:45:25;3.97;;;0.80;;
47403;SDS011;33157;51.508;4.288;2023-03-05T12:55:59;4.43;;;0.65;;
47403;SDS011;33157;51.508;4.288;2023-03-05T13:06:28;3.17;;;1.00;;
47403;SDS011;33157;51.508;4.288;2023-03-05T13:11:35;1.10;;;0.50;;
47403;SDS011;33157;51.508;4.288;2023-03-05T13:16:38;1.63;;;0.50;;
47403;SDS011;33157;51.508;4.288;2023-03-05T13:21:40;1.85;;;0.40;;
47403;SDS011;33157;51.508;4.288;2023-03-05T13:26:45;2.25;;;0.57;;
47403;SDS011;33157;51.508;4.288;2023-03-05T13:32:18;11.35;;;1.55;;
47403;SDS011;33157;51.508;4.288;2023-03-05T13:37:33;2.22;;;0.77;;
47403;SDS011;33157;51.508;4.288;2023-03-05T13:42:36;2.97;;;0.60;;
47403;SDS011;33157;51.508;4.288;2023-03-05T13:47:38;4.20;;;0.90;;
47403;SDS011;33157;51.508;4.288;2023-03-05T13:52:51;3.20;;;0.90;;
47403;SDS011;33157;51.508;4.288;2023-03-05T13:58:03;2.45;;;0.85;;
47403;SDS011;33157;51.508;4.288;2023-03-05T14:03:22;1.50;;;0.50;;
47403;SDS011;33157;51.508;4.288;2023-03-05T14:08:36;0.30;;;0.30;;
47403;SDS011;33157;51.508;4.288;2023-03-05T14:13:38;2.10;;;0.30;;
47403;SDS011;33157;51.508;4.288;2023-03-05T14:18:55;0.65;;;0.38;;
47403;SDS011;33157;51.508;4.288;2023-03-05T14:24:10;1.75;;;0.47;;
47403;SDS011;33157;51.508;4.288;2023-03-05T14:29:20;2.63;;;0.85;;
47403;SDS011;33157;51.508;4.288;2023-03-05T14:34:46;2.90;;;0.60;;
47403;SDS011;33157;51.508;4.288;2023-03-05T14:50:16;2.42;;;1.10;;
47403;SDS011;33157;51.508;4.288;2023-03-05T14:55:24;6.00;;;0.80;;
47403;SDS011;33157;51.508;4.288;2023-03-05T15:00:29;1.35;;;0.30;;
47403;SDS011;33157;51.508;4.288;2023-03-05T15:10:33;1.17;;;0.60;;
47403;SDS011;33157;51.508;4.288;2023-03-05T15:15:34;2.90;;;0.95;;
47403;SDS011;33157;51.508;4.288;2023-03-05T15:20:38;1.80;;;1.23;;
47403;SDS011;33157;51.508;4.288;2023-03-05T15:25:46;3.03;;;0.95;;
47403;SDS011;33157;51.508;4.288;2023-03-05T15:30:47;5.43;;;1.10;;
47403;SDS011;33157;51.508;4.288;2023-03-05T15:35:57;2.08;;;1.13;;
47403;SDS011;33157;51.508;4.288;2023-03-05T15:40:59;2.47;;;0.77;;
47403;SDS011;33157;51.508;4.288;2023-03-05T15:46:03;1.03;;;0.60;;
47403;SDS011;33157;51.508;4.288;2023-03-05T15:51:07;1.60;;;0.70;;
47403;SDS011;33157;51.508;4.288;2023-03-05T15:56:13;0.68;;;0.50;;
47403;SDS011;33157;51.508;4.288;2023-03-05T16:01:22;5.05;;;0.73;;
47403;SDS011;33157;51.508;4.288;2023-03-05T16:06:24;2.22;;;0.70;;
47403;SDS011;33157;51.508;4.288;2023-03-05T16:11:34;1.38;;;0.60;;
47403;SDS011;33157;51.508;4.288;2023-03-05T16:16:39;4.43;;;0.80;;
47403;SDS011;33157;51.508;4.288;2023-03-05T16:21:48;2.33;;;0.70;;
47403;SDS011;33157;51.508;4.288;2023-03-05T16:26:50;6.30;;;1.08;;
47403;SDS011;33157;51.508;4.288;2023-03-05T16:31:51;1.73;;;0.50;;
47403;SDS011;33157;51.508;4.288;2023-03-05T16:36:59;4.72;;;0.80;;
47403;SDS011;33157;51.508;4.288;2023-03-05T16:42:10;2.30;;;0.90;;
47403;SDS011;33157;51.508;4.288;2023-03-05T16:47:19;3.05;;;0.80;;
47403;SDS011;33157;51.508;4.288;2023-03-05T16:57:28;3.30;;;1.30;;
47403;SDS011;33157;51.508;4.288;2023-03-05T17:02:29;2.92;;;0.85;;
47403;SDS011;33157;51.508;4.288;2023-03-05T17:07:30;2.53;;;1.15;;
47403;SDS011;33157;51.508;4.288;2023-03-05T17:12:32;3.50;;;1.67;;
47403;SDS011;33157;51.508;4.288;2023-03-05T17:17:35;5.82;;;2.20;;
47403;SDS011;33157;51.508;4.288;2023-03-05T17:22:38;6.10;;;1.50;;
47403;SDS011;33157;51.508;4.288;2023-03-05T17:27:42;3.53;;;1.40;;
47403;SDS011;33157;51.508;4.288;2023-03-05T17:32:45;3.90;;;1.10;;
47403;SDS011;33157;51.508;4.288;2023-03-05T17:37:49;3.22;;;1.40;;
47403;SDS011;33157;51.508;4.288;2023-03-05T17:43:00;2.95;;;1.45;;
47403;SDS011;33157;51.508;4.288;2023-03-05T17:48:03;7.13;;;2.00;;
47403;SDS011;33157;51.508;4.288;2023-03-05T17:53:08;7.57;;;1.50;;
47403;SDS011;33157;51.508;4.288;2023-03-05T17:58:33;4.45;;;1.67;;
47403;SDS011;33157;51.508;4.288;2023-03-05T18:03:45;4.05;;;1.77;;
47403;SDS011;33157;51.508;4.288;2023-03-05T18:08:46;4.80;;;1.92;;
47403;SDS011;33157;51.508;4.288;2023-03-05T18:13:47;4.07;;;1.92;;
47403;SDS011;33157;51.508;4.288;2023-03-05T18:18:56;4.53;;;2.20;;
47403;SDS011;33157;51.508;4.288;2023-03-05T18:24:01;3.67;;;2.03;;
47403;SDS011;33157;51.508;4.288;2023-03-05T18:29:08;4.67;;;1.90;;
47403;SDS011;33157;51.508;4.288;2023-03-05T18:34:09;5.07;;;2.45;;
47403;SDS011;33157;51.508;4.288;2023-03-05T18:39:13;4.88;;;1.77;;
47403;SDS011;33157;51.508;4.288;2023-03-05T18:44:15;3.25;;;2.00;;
47403;SDS011;33157;51.508;4.288;2023-03-05T18:49:17;3.40;;;2.00;;
47403;SDS011;33157;51.508;4.288;2023-03-05T18:54:30;8.40;;;2.60;;
47403;SDS011;33157;51.508;4.288;2023-03-05T18:59:32;7.70;;;2.88;;
47403;SDS011;33157;51.508;4.288;2023-03-05T19:04:37;6.22;;;2.20;;
47403;SDS011;33157;51.508;4.288;2023-03-05T19:09:53;5.43;;;2.50;;
47403;SDS011;33157;51.508;4.288;2023-03-05T19:14:59;4.00;;;1.95;;
47403;SDS011;33157;51.508;4.288;2023-03-05T19:20:04;4.22;;;1.98;;
47403;SDS011;33157;51.508;4.288;2023-03-05T19:25:41;5.80;;;1.92;;
47403;SDS011;33157;51.508;4.288;2023-03-05T19:30:46;5.43;;;1.80;;
47403;SDS011;33157;51.508;4.288;2023-03-05T19:35:56;5.25;;;1.55;;
47403;SDS011;33157;51.508;4.288;2023-03-05T19:41:09;5.25;;;1.95;;
47403;SDS011;33157;51.508;4.288;2023-03-05T19:51:54;2.75;;;1.50;;
47403;SDS011;33157;51.508;4.288;2023-03-05T19:56:58;3.75;;;2.00;;
47403;SDS011;33157;51.508;4.288;2023-03-05T20:02:10;4.85;;;1.92;;
47403;SDS011;33157;51.508;4.288;2023-03-05T20:07:22;3.97;;;1.95;;
47403;SDS011;33157;51.508;4.288;2023-03-05T20:12:30;4.50;;;2.50;;
47403;SDS011;33157;51.508;4.288;2023-03-05T20:17:36;8.43;;;4.28;;
47403;SDS011;33157;51.508;4.288;2023-03-05T20:22:46;3.42;;;2.30;;
47403;SDS011;33157;51.508;4.288;2023-03-05T20:33:31;4.95;;;2.90;;
47403;SDS011;33157;51.508;4.288;2023-03-05T20:38:33;3.47;;;2.13;;
47403;SDS011;33157;51.508;4.288;2023-03-05T20:43:36;6.00;;;2.70;;
47403;SDS011;33157;51.508;4.288;2023-03-05T20:48:50;4.45;;;2.58;;
47403;SDS011;33157;51.508;4.288;2023-03-05T20:53:56;4.93;;;1.95;;
47403;SDS011;33157;51.508;4.288;2023-03-05T20:59:12;4.07;;;2.70;;
47403;SDS011;33157;51.508;4.288;2023-03-05T21:04:14;5.38;;;2.50;;
47403;SDS011;33157;51.508;4.288;2023-03-05T21:09:18;6.25;;;3.42;;
47403;SDS011;33157;51.508;4.288;2023-03-05T21:14:28;6.85;;;3.42;;
47403;SDS011;33157;51.508;4.288;2023-03-05T21:19:39;6.10;;;3.60;;
47403;SDS011;33157;51.508;4.288;2023-03-05T21:24:42;6.45;;;3.65;;
47403;SDS011;33157;51.508;4.288;2023-03-05T21:30:08;6.20;;;3.95;;
47403;SDS011;33157;51.508;4.288;2023-03-05T21:35:15;8.27;;;5.10;;
47403;SDS011;33157;51.508;4.288;2023-03-05T21:40:27;7.65;;;4.80;;
47403;SDS011;33157;51.508;4.288;2023-03-05T21:45:30;9.82;;;4.57;;
47403;SDS011;33157;51.508;4.288;2023-03-05T21:50:32;9.90;;;5.05;;
47403;SDS011;33157;51.508;4.288;2023-03-05T21:55:37;7.22;;;4.55;;
47403;SDS011;33157;51.508;4.288;2023-03-05T22:01:04;10.50;;;5.25;;
47403;SDS011;33157;51.508;4.288;2023-03-05T22:06:18;10.82;;;6.03;;
47403;SDS011;33157;51.508;4.288;2023-03-05T22:11:21;13.63;;;6.93;;
47403;SDS011;33157;51.508;4.288;2023-03-05T22:16:24;12.73;;;8.50;;
47403;SDS011;33157;51.508;4.288;2023-03-05T22:21:27;15.23;;;7.70;;
47403;SDS011;33157;51.508;4.288;2023-03-05T22:26:37;15.02;;;6.45;;
47403;SDS011;33157;51.508;4.288;2023-03-05T22:31:39;12.07;;;6.85;;
47403;SDS011;33157;51.508;4.288;2023-03-05T22:36:41;10.18;;;6.28;;
47403;SDS011;33157;51.508;4.288;2023-03-05T22:41:49;8.48;;;4.85;;
47403;SDS011;33157;51.508;4.288;2023-03-05T22:46:54;8.15;;;4.70;;
47403;SDS011;33157;51.508;4.288;2023-03-05T22:52:02;10.43;;;5.50;;
47403;SDS011;33157;51.508;4.288;2023-03-05T22:57:04;9.00;;;5.10;;
47403;SDS011;33157;51.508;4.288;2023-03-05T23:02:18;8.23;;;5.10;;
47403;SDS011;33157;51.508;4.288;2023-03-05T23:07:23;7.72;;;4.93;;
47403;SDS011;33157;51.508;4.288;2023-03-05T23:12:27;6.05;;;3.90;;
47403;SDS011;33157;51.508;4.288;2023-03-05T23:17:30;7.63;;;3.83;;
47403;SDS011;33157;51.508;4.288;2023-03-05T23:22:31;8.68;;;3.63;;
47403;SDS011;33157;51.508;4.288;2023-03-05T23:27:31;9.07;;;3.50;;
47403;SDS011;33157;51.508;4.288;2023-03-05T23:32:38;10.85;;;3.75;;
47403;SDS011;33157;51.508;4.288;2023-03-05T23:42:41;8.57;;;3.20;;
47403;SDS011;33157;51.508;4.288;2023-03-05T23:47:42;5.68;;;2.20;;
47403;SDS011;33157;51.508;4.288;2023-03-05T23:52:47;5.75;;;2.42;;
47403;SDS011;33157;51.508;4.288;2023-03-05T23:57:53;5.22;;;2.58;;
